Time;durP1;ratioP1;P1;durP2;ratioP2;P2;SDS_P1;SDS_P2;PMS_P1;PMS_P2;Temp;Humidity;BMP_temperature;BMP_pressure;BME280_temperature;BME280_humidity;BME280_pressure;Samples;Min_cycle;Max_cycle;Signal;HPM_P1;HPM_P2
2022/03/13 00:00:11;;;;;;;14.43;9.23;;;4.90;1.00;;;;;;5082519;28;20472;-66
2022/03/13 00:02:37;;;;;;;11.63;7.80;;;4.90;1.00;;;;;;5080580;28;20486;-66
2022/03/13 00:05:05;;;;;;;9.53;8.47;;;4.90;1.00;;;;;;5090114;28;20434;-61
2022/03/13 00:07:31;;;;;;;12.57;8.07;;;4.80;1.00;;;;;;5088727;28;20495;-67
2022/03/13 00:09:57;;;;;;;11.87;7.83;;;4.80;1.00;;;;;;5083317;28;20455;-67
2022/03/13 00:12:30;;;;;;;14.80;9.13;;;4.80;1.00;;;;;;5078106;28;20972;-66
2022/03/13 00:14:57;;;;;;;10.67;7.67;;;4.70;1.00;;;;;;5072988;28;20169;-67
2022/03/13 00:17:27;;;;;;;11.77;8.40;;;4.70;1.00;;;;;;5062034;28;20429;-67
2022/03/13 00:20:01;;;;;;;13.10;9.83;;;4.80;1.00;;;;;;5073179;28;20431;-61
2022/03/13 00:22:28;;;;;;;10.33;7.20;;;4.80;1.00;;;;;;5075237;28;20509;-68
2022/03/13 00:24:54;;;;;;;10.73;8.90;;;4.70;1.00;;;;;;5074977;28;20447;-61
2022/03/13 00:27:21;;;;;;;9.37;8.00;;;4.70;1.00;;;;;;5082013;28;20462;-66
2022/03/13 00:29:47;;;;;;;11.70;7.67;;;4.70;1.00;;;;;;5086082;28;20467;-66
2022/03/13 00:32:12;;;;;;;14.80;8.67;;;4.70;1.00;;;;;;5083464;28;20575;-67
2022/03/13 00:34:38;;;;;;;10.23;8.77;;;4.60;1.00;;;;;;5081804;28;20831;-66
2022/03/13 00:37:04;;;;;;;10.47;7.43;;;4.70;1.00;;;;;;5082263;28;20184;-65
2022/03/13 00:39:30;;;;;;;14.57;9.20;;;4.70;1.00;;;;;;5085997;28;20651;-68
2022/03/13 00:41:55;;;;;;;15.33;9.80;;;4.60;1.00;;;;;;5085120;28;20203;-66
2022/03/13 00:44:22;;;;;;;12.63;8.40;;;4.60;1.00;;;;;;5055577;28;21001;-61
2022/03/13 00:46:47;;;;;;;14.80;9.47;;;4.60;1.00;;;;;;5075130;28;20182;-66
2022/03/13 00:49:13;;;;;;;11.07;8.60;;;4.60;1.00;;;;;;5086789;28;20459;-61
2022/03/13 00:51:38;;;;;;;15.53;8.60;;;4.60;1.00;;;;;;5082267;28;20214;-62
2022/03/13 00:54:04;;;;;;;16.63;10.60;;;4.50;1.00;;;;;;5088627;28;20174;-66
2022/03/13 00:56:31;;;;;;;10.93;9.03;;;4.50;1.00;;;;;;5084899;28;20171;-67
2022/03/13 00:58:58;;;;;;;11.27;9.17;;;4.40;1.00;;;;;;5066143;28;20436;-67
2022/03/13 01:01:23;;;;;;;10.57;8.83;;;4.40;1.00;;;;;;5061649;28;20476;-60
2022/03/13 01:03:53;;;;;;;18.83;10.30;;;4.40;1.00;;;;;;5062044;28;20423;-66
2022/03/13 01:06:20;;;;;;;13.27;8.43;;;4.40;1.00;;;;;;5087721;28;20184;-61
2022/03/13 01:08:47;;;;;;;15.70;10.53;;;4.30;1.00;;;;;;5084774;28;20461;-61
2022/03/13 01:11:18;;;;;;;13.80;9.63;;;4.30;1.00;;;;;;5094225;28;20443;-61
2022/03/13 01:13:45;;;;;;;12.17;9.60;;;4.30;1.00;;;;;;5079197;28;20459;-61
2022/03/13 01:16:11;;;;;;;12.40;9.27;;;4.20;1.00;;;;;;5081484;28;21103;-61
2022/03/13 01:18:43;;;;;;;19.70;10.03;;;4.20;1.00;;;;;;5075267;28;20765;-67
2022/03/13 01:21:10;;;;;;;17.00;10.53;;;4.10;1.00;;;;;;5082016;28;20465;-60
2022/03/13 01:23:36;;;;;;;14.57;8.63;;;4.10;1.00;;;;;;5087425;28;20431;-62
2022/03/13 01:26:21;;;;;;;19.10;11.00;;;4.10;1.00;;;;;;5088708;28;20440;-67
2022/03/13 01:28:46;;;;;;;20.53;10.30;;;4.10;1.00;;;;;;5095129;28;20450;-61
2022/03/13 01:31:12;;;;;;;15.63;10.90;;;4.10;1.00;;;;;;5071972;28;20808;-62
2022/03/13 01:33:38;;;;;;;20.40;12.20;;;4.00;1.00;;;;;;5082016;28;20178;-61
2022/03/13 01:36:03;;;;;;;17.57;12.13;;;3.90;1.00;;;;;;5092589;28;20180;-67
2022/03/13 01:38:33;;;;;;;16.03;10.53;;;3.90;1.00;;;;;;5091563;28;20187;-66
2022/03/13 01:40:58;;;;;;;19.50;10.80;;;4.00;1.00;;;;;;5090847;28;20423;-61
2022/03/13 01:43:25;;;;;;;10.27;8.73;;;3.90;1.00;;;;;;5081843;28;20460;-66
2022/03/13 01:45:51;;;;;;;17.87;9.30;;;3.90;1.00;;;;;;5082440;28;20531;-65
2022/03/13 01:48:17;;;;;;;12.33;9.73;;;3.90;1.00;;;;;;5094628;28;20834;-66
2022/03/13 01:50:43;;;;;;;19.27;11.27;;;3.80;1.00;;;;;;5093345;28;20492;-67
2022/03/13 01:53:08;;;;;;;15.10;10.53;;;3.90;1.00;;;;;;5090387;28;20574;-66
2022/03/13 01:55:34;;;;;;;17.57;10.83;;;3.90;1.00;;;;;;5089683;28;20174;-60
2022/03/13 01:58:00;;;;;;;16.03;10.47;;;3.80;1.00;;;;;;5081373;28;20178;-66
2022/03/13 02:00:27;;;;;;;13.97;9.60;;;3.90;1.00;;;;;;5077316;28;20501;-66
2022/03/13 02:02:52;;;;;;;17.73;10.60;;;3.80;1.00;;;;;;5077093;28;20244;-67
2022/03/13 02:05:36;;;;;;;18.83;10.83;;;3.80;1.00;;;;;;5078589;28;20431;-67
2022/03/13 02:08:12;;;;;;;13.70;9.70;;;3.80;1.00;;;;;;5067644;28;20572;-61
2022/03/13 02:10:38;;;;;;;11.50;9.10;;;3.90;1.00;;;;;;5092049;28;20517;-61
2022/03/13 02:13:04;;;;;;;13.97;9.50;;;3.80;1.00;;;;;;5080814;28;20535;-60
2022/03/13 02:15:32;;;;;;;16.70;9.70;;;3.90;1.00;;;;;;5076090;28;20166;-66
2022/03/13 02:18:01;;;;;;;17.20;9.43;;;3.80;1.00;;;;;;5076205;28;20306;-67
2022/03/13 02:20:27;;;;;;;18.80;10.80;;;3.80;1.00;;;;;;5073602;28;20462;-60
2022/03/13 02:22:59;;;;;;;16.13;10.10;;;3.70;1.00;;;;;;5079405;28;20964;-60
2022/03/13 02:25:31;;;;;;;12.43;10.07;;;3.70;1.00;;;;;;5079736;28;20565;-61
2022/03/13 02:27:58;;;;;;;16.20;11.80;;;3.70;1.00;;;;;;5076807;28;20828;-67
2022/03/13 02:30:25;;;;;;;33.93;10.73;;;3.60;1.00;;;;;;5084429;28;20956;-66
2022/03/13 02:32:52;;;;;;;18.03;10.60;;;3.60;1.00;;;;;;5079249;28;20840;-61
2022/03/13 02:35:18;;;;;;;11.43;8.40;;;3.50;1.00;;;;;;5073303;28;20416;-62
2022/03/13 02:37:44;;;;;;;21.13;10.80;;;3.60;1.00;;;;;;5083056;28;20447;-66
2022/03/13 02:40:26;;;;;;;17.53;9.67;;;3.50;1.00;;;;;;5067921;28;20423;-61
2022/03/13 02:42:53;;;;;;;17.73;10.63;;;3.50;1.00;;;;;;5074388;28;20219;-62
2022/03/13 02:45:35;;;;;;;16.90;11.33;;;3.40;1.00;;;;;;5092250;28;20531;-66
2022/03/13 02:48:03;;;;;;;17.47;10.20;;;3.40;1.00;;;;;;5085199;28;20436;-61
2022/03/13 02:50:29;;;;;;;20.30;9.73;;;3.40;1.00;;;;;;5074274;28;20467;-62
2022/03/13 02:52:55;;;;;;;15.63;11.17;;;3.30;1.00;;;;;;5078874;28;20661;-64
2022/03/13 02:55:21;;;;;;;15.23;9.50;;;3.30;1.00;;;;;;5077889;28;20512;-66
2022/03/13 02:57:47;;;;;;;10.80;8.90;;;3.20;1.00;;;;;;5084154;28;20443;-64
2022/03/13 03:00:15;;;;;;;10.70;8.80;;;3.20;1.00;;;;;;5080226;28;20421;-60
2022/03/13 03:02:41;;;;;;;13.20;8.87;;;3.20;1.00;;;;;;5081326;28;20835;-61
2022/03/13 03:05:08;;;;;;;14.80;9.60;;;3.10;1.00;;;;;;5085280;28;20430;-66
2022/03/13 03:07:35;;;;;;;14.60;10.80;;;3.20;1.00;;;;;;5085724;28;20930;-66
2022/03/13 03:10:02;;;;;;;16.87;11.00;;;3.10;1.00;;;;;;5074318;28;20468;-67
2022/03/13 03:12:28;;;;;;;11.93;10.63;;;3.10;2.70;;;;;;5091862;28;20447;-63
2022/03/13 03:14:54;;;;;;;17.87;10.93;;;3.10;1.00;;;;;;5088530;28;20445;-64
2022/03/13 03:17:20;;;;;;;16.20;8.47;;;3.00;1.00;;;;;;5091773;28;20189;-61
2022/03/13 03:19:46;;;;;;;15.10;10.83;;;3.00;1.00;;;;;;5055439;28;20424;-61
2022/03/13 03:22:12;;;;;;;12.70;10.03;;;3.00;1.00;;;;;;5089967;28;21161;-66
2022/03/13 03:24:38;;;;;;;15.53;10.10;;;2.90;1.00;;;;;;5075422;28;20415;-66
2022/03/13 03:27:04;;;;;;;13.63;9.50;;;2.90;1.00;;;;;;5085586;28;20432;-67
2022/03/13 03:29:30;;;;;;;17.60;11.50;;;2.90;1.00;;;;;;5090984;28;20281;-67
2022/03/13 03:31:56;;;;;;;18.50;11.43;;;2.80;1.00;;;;;;5084691;28;20213;-62
2022/03/13 03:34:24;;;;;;;20.03;10.63;;;2.80;1.00;;;;;;5091497;28;20204;-60
2022/03/13 03:36:59;;;;;;;17.20;10.63;;;2.80;1.10;;;;;;5074561;28;20412;-69
2022/03/13 03:39:27;;;;;;;13.93;9.27;;;2.80;1.00;;;;;;5076220;28;20506;-69
2022/03/13 03:41:53;;;;;;;14.73;9.73;;;2.80;1.50;;;;;;5061719;28;20812;-66
2022/03/13 03:44:20;;;;;;;13.67;10.03;;;2.80;1.00;;;;;;5087004;28;20428;-66
2022/03/13 03:46:47;;;;;;;18.03;9.80;;;2.70;1.40;;;;;;5075277;28;20456;-69
2022/03/13 03:49:13;;;;;;;13.40;11.37;;;2.70;4.10;;;;;;5082615;28;20481;-64
2022/03/13 03:51:39;;;;;;;13.80;8.70;;;2.60;4.40;;;;;;5066460;28;20456;-69
2022/03/13 03:54:06;;;;;;;19.13;9.53;;;2.60;5.80;;;;;;5075774;28;20773;-69
2022/03/13 03:56:32;;;;;;;14.53;9.30;;;2.50;5.20;;;;;;5072691;28;20439;-63
2022/03/13 03:58:58;;;;;;;15.80;10.07;;;2.50;4.30;;;;;;5061955;28;20439;-64
2022/03/13 04:01:24;;;;;;;13.93;8.90;;;2.50;4.30;;;;;;5076919;28;20454;-63
2022/03/13 04:03:50;;;;;;;11.73;10.57;;;2.40;4.00;;;;;;5080835;28;20427;-69
2022/03/13 04:06:18;;;;;;;11.40;9.13;;;2.40;5.80;;;;;;5079909;28;20178;-63
2022/03/13 04:08:44;;;;;;;17.27;10.20;;;2.30;4.20;;;;;;5079064;28;20502;-69
2022/03/13 04:11:10;;;;;;;15.07;10.13;;;2.30;5.40;;;;;;5057167;28;20869;-67
2022/03/13 04:13:38;;;;;;;18.73;10.97;;;2.30;3.20;;;;;;5089091;28;20366;-63
2022/03/13 04:16:08;;;;;;;15.27;9.93;;;2.30;2.60;;;;;;5089643;28;20434;-69
2022/03/13 04:18:37;;;;;;;13.60;9.57;;;2.30;1.50;;;;;;5076805;28;20470;-69
2022/03/13 04:21:05;;;;;;;12.17;9.30;;;2.40;1.70;;;;;;5087961;28;21322;-69
2022/03/13 04:23:33;;;;;;;15.60;9.30;;;2.40;1.70;;;;;;5077515;28;20434;-68
2022/03/13 04:25:59;;;;;;;14.27;10.00;;;2.40;5.00;;;;;;5074749;28;20428;-63
2022/03/13 04:28:25;;;;;;;15.87;9.67;;;2.40;2.30;;;;;;5076411;28;20424;-63
2022/03/13 04:30:53;;;;;;;14.77;9.13;;;2.30;2.90;;;;;;5081665;28;20720;-65
2022/03/13 04:33:21;;;;;;;16.03;9.63;;;2.30;4.00;;;;;;5084308;28;20481;-63
2022/03/13 04:35:47;;;;;;;22.37;9.90;;;2.30;1.90;;;;;;5080065;28;20857;-69
2022/03/13 04:38:13;;;;;;;13.13;8.77;;;2.20;2.40;;;;;;5080132;28;20499;-69
2022/03/13 04:40:39;;;;;;;12.33;9.40;;;2.20;2.10;;;;;;5083357;28;20197;-63
2022/03/13 04:43:04;;;;;;;16.70;10.47;;;2.20;1.70;;;;;;5089844;28;20474;-68
2022/03/13 04:45:30;;;;;;;9.90;8.90;;;2.20;1.80;;;;;;5074580;28;20174;-69
2022/03/13 04:47:56;;;;;;;12.70;8.90;;;2.20;2.00;;;;;;5073991;28;20181;-69
2022/03/13 04:50:22;;;;;;;13.00;9.53;;;2.20;1.10;;;;;;5075053;28;20547;-63
2022/03/13 04:52:47;;;;;;;19.20;10.27;;;2.20;1.20;;;;;;5073547;28;20459;-68
2022/03/13 04:55:13;;;;;;;13.57;10.17;;;2.20;1.00;;;;;;5081921;28;20169;-64
2022/03/13 04:57:39;;;;;;;14.47;11.17;;;2.20;1.20;;;;;;5080011;28;20252;-68
2022/03/13 05:00:05;;;;;;;11.63;9.07;;;2.20;1.00;;;;;;5082266;28;20526;-69
2022/03/13 05:02:31;;;;;;;10.67;9.13;;;2.20;1.00;;;;;;5078101;28;20229;-64
2022/03/13 05:04:59;;;;;;;12.63;9.30;;;2.20;1.00;;;;;;5086538;28;20459;-69
2022/03/13 05:07:27;;;;;;;14.23;8.70;;;2.30;1.00;;;;;;5086754;28;20170;-67
2022/03/13 05:09:53;;;;;;;8.70;7.87;;;2.20;1.00;;;;;;5082246;28;20449;-65
2022/03/13 05:12:21;;;;;;;15.03;8.70;;;2.20;1.00;;;;;;5091512;28;20443;-68
2022/03/13 05:14:47;;;;;;;12.43;9.17;;;2.20;1.00;;;;;;5082247;28;20189;-69
2022/03/13 05:17:13;;;;;;;13.73;10.17;;;2.30;1.00;;;;;;5070908;28;20427;-66
2022/03/13 05:19:39;;;;;;;14.93;8.67;;;2.30;1.00;;;;;;5072668;28;20201;-69
2022/03/13 05:22:04;;;;;;;16.50;8.97;;;2.30;1.00;;;;;;5075021;28;20222;-69
2022/03/13 05:24:30;;;;;;;13.67;8.80;;;2.30;1.00;;;;;;5076866;28;20974;-68
2022/03/13 05:26:56;;;;;;;15.10;9.00;;;2.20;1.00;;;;;;5072065;28;20517;-69
2022/03/13 05:29:21;;;;;;;13.37;9.67;;;2.20;1.00;;;;;;5083720;28;20198;-67
2022/03/13 05:31:47;;;;;;;11.57;8.77;;;2.20;1.00;;;;;;5077172;28;20190;-68
2022/03/13 05:34:13;;;;;;;13.03;8.50;;;2.20;1.00;;;;;;5088314;28;20270;-69
2022/03/13 05:36:38;;;;;;;14.80;8.80;;;2.20;1.00;;;;;;5073927;28;20446;-68
2022/03/13 05:39:04;;;;;;;15.60;10.27;;;2.20;1.00;;;;;;5082678;28;20177;-63
2022/03/13 05:41:30;;;;;;;9.90;8.53;;;2.20;1.10;;;;;;5078432;28;20662;-62
2022/03/13 05:43:56;;;;;;;14.83;8.37;;;2.30;1.00;;;;;;5093864;28;20170;-68
2022/03/13 05:46:21;;;;;;;15.07;9.87;;;2.20;1.00;;;;;;5082086;28;20174;-64
2022/03/13 05:48:47;;;;;;;10.73;7.70;;;2.20;1.00;;;;;;5077259;28;21475;-69
2022/03/13 05:51:13;;;;;;;15.70;9.17;;;2.20;1.00;;;;;;5090751;28;20226;-67
2022/03/13 05:53:38;;;;;;;12.73;8.27;;;2.20;1.00;;;;;;5084454;28;20177;-68
2022/03/13 05:56:04;;;;;;;15.83;8.70;;;2.30;1.00;;;;;;5087930;28;20179;-64
2022/03/13 05:58:30;;;;;;;11.33;8.57;;;2.30;1.00;;;;;;5076806;28;20527;-69
2022/03/13 06:01:04;;;;;;;10.53;8.67;;;2.30;1.00;;;;;;5085948;28;20572;-63
2022/03/13 06:03:30;;;;;;;10.47;7.80;;;2.30;1.00;;;;;;5092581;28;20177;-68
2022/03/13 06:05:56;;;;;;;16.20;9.97;;;2.20;1.00;;;;;;5091842;28;20514;-67
2022/03/13 06:08:22;;;;;;;17.73;9.93;;;2.30;1.00;;;;;;5077994;28;20858;-63
2022/03/13 06:10:48;;;;;;;15.10;9.27;;;2.30;1.00;;;;;;5083310;28;20467;-63
2022/03/13 06:13:14;;;;;;;10.93;6.93;;;2.30;1.00;;;;;;5078374;28;20432;-68
2022/03/13 06:15:40;;;;;;;10.97;8.70;;;2.30;1.00;;;;;;5079020;28;20170;-68
2022/03/13 06:18:05;;;;;;;14.03;8.07;;;2.30;1.00;;;;;;5082420;28;20447;-63
2022/03/13 06:20:31;;;;;;;15.33;7.63;;;2.30;1.00;;;;;;5091715;28;20508;-69
2022/03/13 06:22:58;;;;;;;9.60;7.83;;;2.30;1.00;;;;;;5088873;28;20280;-69
2022/03/13 06:25:24;;;;;;;12.03;7.90;;;2.30;1.00;;;;;;5089700;28;20174;-62
2022/03/13 06:27:50;;;;;;;16.23;8.33;;;2.30;1.00;;;;;;5074013;28;20450;-68
2022/03/13 06:30:16;;;;;;;15.80;7.87;;;2.40;1.00;;;;;;5092995;28;20455;-63
2022/03/13 06:32:50;;;;;;;7.80;7.10;;;2.40;1.00;;;;;;5080844;28;20186;-63
2022/03/13 06:35:18;;;;;;;16.60;9.40;;;2.40;1.00;;;;;;5057833;28;20780;-63
2022/03/13 06:37:44;;;;;;;12.10;8.37;;;2.50;1.00;;;;;;5076226;28;20424;-67
2022/03/13 06:40:11;;;;;;;14.57;8.90;;;2.50;1.00;;;;;;5074193;28;20431;-67
2022/03/13 06:42:39;;;;;;;13.00;8.80;;;2.60;1.00;;;;;;5084027;28;20544;-69
2022/03/13 06:45:06;;;;;;;10.80;8.37;;;2.60;1.00;;;;;;5069940;28;20435;-69
2022/03/13 06:47:32;;;;;;;12.53;7.90;;;2.70;1.00;;;;;;5094504;28;20971;-62
2022/03/13 06:49:58;;;;;;;12.67;8.17;;;2.70;1.00;;;;;;5080361;28;20547;-63
2022/03/13 06:52:24;;;;;;;10.87;8.07;;;2.70;1.00;;;;;;5073290;28;20517;-62
2022/03/13 06:54:49;;;;;;;9.57;8.43;;;2.80;1.00;;;;;;5080047;28;20228;-68
2022/03/13 06:57:15;;;;;;;10.30;9.10;;;2.80;1.00;;;;;;5074382;28;20173;-66
2022/03/13 06:59:44;;;;;;;13.70;8.63;;;2.80;1.00;;;;;;5082472;28;20180;-61
2022/03/13 07:02:13;;;;;;;7.93;7.17;;;2.90;1.00;;;;;;5094457;28;20185;-63
2022/03/13 07:04:39;;;;;;;13.23;8.10;;;2.90;1.00;;;;;;5092249;28;20419;-68
2022/03/13 07:07:05;;;;;;;10.90;7.30;;;2.90;1.00;;;;;;5076402;28;20813;-62
2022/03/13 07:09:31;;;;;;;13.63;8.50;;;2.90;1.00;;;;;;5067581;28;20452;-68
2022/03/13 07:11:57;;;;;;;14.30;7.53;;;2.90;1.00;;;;;;5074012;28;20643;-62
2022/03/13 07:14:24;;;;;;;8.87;6.80;;;3.00;1.00;;;;;;5079813;28;20419;-67
2022/03/13 07:16:49;;;;;;;16.30;8.97;;;3.00;1.00;;;;;;5094137;28;20396;-62
2022/03/13 07:19:15;;;;;;;9.73;7.70;;;3.00;1.00;;;;;;5082874;28;20465;-62
2022/03/13 07:21:41;;;;;;;11.60;9.60;;;3.10;1.00;;;;;;5094296;28;20788;-62
2022/03/13 07:24:07;;;;;;;8.37;7.50;;;3.20;1.00;;;;;;5091357;28;20231;-62
2022/03/13 07:26:33;;;;;;;14.97;9.50;;;3.20;1.00;;;;;;5073880;28;20639;-68
2022/03/13 07:29:01;;;;;;;9.30;7.43;;;3.20;1.00;;;;;;5073338;28;20877;-68
2022/03/13 07:31:28;;;;;;;9.97;9.00;;;3.20;1.00;;;;;;5089538;28;20443;-62
2022/03/13 07:33:53;;;;;;;8.30;7.60;;;3.30;1.00;;;;;;5093930;28;20392;-64
2022/03/13 07:36:19;;;;;;;11.37;8.20;;;3.40;1.00;;;;;;5069764;28;20430;-67
2022/03/13 07:38:45;;;;;;;14.03;8.60;;;3.50;1.00;;;;;;5083944;28;20627;-66
2022/03/13 07:41:11;;;;;;;9.30;7.87;;;3.50;1.00;;;;;;5058975;28;20196;-65
2022/03/13 07:43:37;;;;;;;12.53;9.07;;;3.60;1.00;;;;;;5085413;28;20701;-66
2022/03/13 07:46:02;;;;;;;11.73;8.20;;;3.70;1.00;;;;;;5073116;28;20420;-65
2022/03/13 07:48:29;;;;;;;13.77;8.20;;;3.80;1.00;;;;;;5087511;28;20184;-67
2022/03/13 07:50:56;;;;;;;11.77;8.77;;;3.80;1.00;;;;;;5082695;28;20202;-66
2022/03/13 07:53:26;;;;;;;12.70;9.40;;;3.90;1.00;;;;;;5082811;28;20436;-60
2022/03/13 07:55:52;;;;;;;12.43;9.20;;;4.00;1.00;;;;;;5079510;28;21149;-61
2022/03/13 07:58:18;;;;;;;13.20;7.63;;;4.10;1.00;;;;;;5074863;28;20449;-67
2022/03/13 08:00:44;;;;;;;11.50;8.70;;;4.10;1.00;;;;;;5074360;28;20178;-65
2022/03/13 08:03:10;;;;;;;11.60;8.63;;;4.20;1.00;;;;;;5073048;28;20236;-66
2022/03/13 08:05:36;;;;;;;10.90;8.50;;;4.30;1.00;;;;;;5090082;28;20230;-67
2022/03/13 08:08:02;;;;;;;9.90;8.83;;;4.40;1.00;;;;;;5093213;28;20404;-66
2022/03/13 08:10:28;;;;;;;9.80;8.80;;;4.50;1.00;;;;;;5078743;28;20624;-62
2022/03/13 08:12:54;;;;;;;12.60;8.67;;;4.50;1.00;;;;;;5072668;28;20439;-69
2022/03/13 08:15:20;;;;;;;13.50;10.23;;;4.50;1.00;;;;;;5072573;28;20821;-62
2022/03/13 08:17:46;;;;;;;14.40;8.83;;;4.60;1.00;;;;;;5072089;28;20167;-67
2022/03/13 08:20:13;;;;;;;11.27;8.47;;;4.70;1.00;;;;;;5090671;28;20780;-66
2022/03/13 08:22:38;;;;;;;14.90;9.73;;;4.80;1.00;;;;;;5092984;28;20189;-61
2022/03/13 08:25:06;;;;;;;8.63;7.30;;;4.90;1.00;;;;;;5092985;28;20833;-62
2022/03/13 08:27:33;;;;;;;8.30;7.20;;;4.90;1.00;;;;;;5074814;28;20169;-66
2022/03/13 08:29:59;;;;;;;11.27;8.50;;;5.00;1.00;;;;;;5076221;28;20506;-65
2022/03/13 08:32:25;;;;;;;15.00;8.83;;;5.20;1.00;;;;;;5072704;28;20430;-60
2022/03/13 08:34:52;;;;;;;13.90;9.53;;;5.20;1.00;;;;;;5071617;28;20866;-61
2022/03/13 08:37:18;;;;;;;8.70;7.80;;;5.40;1.00;;;;;;5072583;28;20405;-67
2022/03/13 08:39:43;;;;;;;13.10;8.70;;;5.50;1.00;;;;;;5071894;28;20876;-67
2022/03/13 08:42:09;;;;;;;18.20;8.87;;;5.60;1.00;;;;;;5073032;28;20966;-66
2022/03/13 08:44:35;;;;;;;19.50;9.60;;;5.70;1.00;;;;;;5092775;28;20177;-62
2022/03/13 08:47:01;;;;;;;11.33;8.30;;;5.80;1.00;;;;;;5092860;28;20622;-61
2022/03/13 08:49:27;;;;;;;10.70;8.70;;;5.90;1.00;;;;;;5091690;28;20193;-66
2022/03/13 08:51:52;;;;;;;11.77;9.03;;;6.00;1.00;;;;;;5092608;28;20447;-66
2022/03/13 08:54:19;;;;;;;13.93;8.97;;;6.10;1.00;;;;;;5091958;28;20411;-67
2022/03/13 08:56:46;;;;;;;9.73;8.73;;;6.20;1.00;;;;;;5086293;28;20170;-69
2022/03/13 08:59:12;;;;;;;14.13;10.23;;;6.30;1.00;;;;;;5053481;28;20424;-66
2022/03/13 09:01:37;;;;;;;12.60;9.17;;;6.40;1.00;;;;;;5072369;28;20444;-67
2022/03/13 09:04:05;;;;;;;13.23;8.80;;;6.50;1.00;;;;;;5072619;28;20198;-61
2022/03/13 09:06:30;;;;;;;15.73;9.50;;;6.60;1.00;;;;;;5072562;28;20479;-67
2022/03/13 09:08:57;;;;;;;15.90;10.00;;;6.80;1.00;;;;;;5073223;28;20196;-61
2022/03/13 09:11:22;;;;;;;13.63;10.30;;;6.90;1.00;;;;;;5086617;28;20553;-65
2022/03/13 09:13:48;;;;;;;13.50;9.27;;;7.00;1.00;;;;;;5096622;28;20399;-66
2022/03/13 09:16:14;;;;;;;14.90;9.73;;;7.00;1.00;;;;;;5096498;28;20219;-67
2022/03/13 09:18:40;;;;;;;18.93;10.10;;;7.10;1.00;;;;;;5095574;28;20166;-62
2022/03/13 09:21:05;;;;;;;17.17;9.53;;;7.20;1.00;;;;;;5096576;28;20265;-67
2022/03/13 09:23:31;;;;;;;11.90;10.60;;;7.40;1.00;;;;;;5096307;28;20404;-63
2022/03/13 09:25:57;;;;;;;13.70;9.13;;;7.80;1.00;;;;;;5080465;28;20174;-69
2022/03/13 09:28:23;;;;;;;11.60;8.80;;;8.20;1.00;;;;;;5075659;28;20159;-67
2022/03/13 09:30:49;;;;;;;15.33;10.17;;;8.50;1.00;;;;;;5056398;28;21030;-69
2022/03/13 09:33:15;;;;;;;10.03;8.70;;;8.90;1.00;;;;;;5075995;28;20251;-64
2022/03/13 09:35:41;;;;;;;13.10;9.13;;;9.20;1.00;;;;;;5076016;28;20159;-69
2022/03/13 09:38:07;;;;;;;13.00;9.50;;;9.40;1.00;;;;;;5075896;28;20891;-69
2022/03/13 09:40:33;;;;;;;13.83;10.23;;;9.60;1.00;;;;;;5094093;28;20424;-68
2022/03/13 09:43:00;;;;;;;12.30;8.33;;;9.60;1.00;;;;;;5096034;28;20421;-70
2022/03/13 09:45:27;;;;;;;14.40;10.47;;;9.70;1.00;;;;;;5095902;28;20812;-68
2022/03/13 09:47:53;;;;;;;10.27;9.13;;;9.90;1.00;;;;;;5095276;28;20414;-69
2022/03/13 09:50:21;;;;;;;11.87;9.27;;;10.00;1.00;;;;;;5094719;28;20457;-69
2022/03/13 09:52:47;;;;;;;13.73;9.57;;;10.30;1.00;;;;;;5090611;28;20447;-69
2022/03/13 09:55:14;;;;;;;12.60;10.23;;;10.50;1.00;;;;;;5075683;28;20489;-69
2022/03/13 09:57:41;;;;;;;11.60;9.57;;;10.80;1.00;;;;;;5075228;28;20499;-68
2022/03/13 10:00:11;;;;;;;11.97;9.33;;;11.00;1.00;;;;;;5074356;28;20407;-64
2022/03/13 10:02:38;;;;;;;16.73;10.20;;;11.40;1.00;;;;;;5075234;28;20420;-64
2022/03/13 10:05:14;;;;;;;11.27;9.57;;;11.50;1.00;;;;;;5074640;28;20415;-69
2022/03/13 10:08:03;;;;;;;18.80;11.00;;;11.30;1.00;;;;;;5084898;28;20753;-64
2022/03/13 10:10:42;;;;;;;15.70;11.03;;;11.00;1.00;;;;;;5094575;28;20466;-70
2022/03/13 10:13:09;;;;;;;12.20;9.53;;;10.90;1.00;;;;;;5095625;28;20410;-69
2022/03/13 10:15:47;;;;;;;14.67;9.77;;;11.00;1.00;;;;;;5077333;28;20446;-63
2022/03/13 10:18:15;;;;;;;17.63;9.97;;;11.10;1.00;;;;;;5086638;28;20398;-70
2022/03/13 10:20:41;;;;;;;11.40;8.30;;;11.20;1.00;;;;;;5072719;28;20412;-66
2022/03/13 10:23:11;;;;;;;14.50;10.73;;;11.40;1.00;;;;;;5087445;28;20452;-66
2022/03/13 10:25:41;;;;;;;13.50;8.13;;;11.60;1.00;;;;;;5074410;28;20436;-64
2022/03/13 10:28:30;;;;;;;13.43;9.30;;;12.00;1.00;;;;;;5081482;28;20419;-71
2022/03/13 10:30:59;;;;;;;14.90;9.90;;;12.30;1.00;;;;;;5094915;28;20443;-64
2022/03/13 10:33:43;;;;;;;13.67;9.60;;;12.50;1.00;;;;;;5086363;28;20409;-70
2022/03/13 10:36:12;;;;;;;10.60;8.30;;;12.60;1.00;;;;;;5084602;28;20422;-64
2022/03/13 10:38:38;;;;;;;13.90;10.20;;;12.60;1.00;;;;;;5084162;28;20514;-64
2022/03/13 10:41:08;;;;;;;14.70;9.80;;;12.70;1.00;;;;;;5072198;28;20426;-64
2022/03/13 10:43:46;;;;;;;15.70;9.93;;;13.10;1.00;;;;;;5080637;28;20415;-66
2022/03/13 10:46:25;;;;;;;11.17;9.70;;;13.50;1.00;;;;;;5085416;28;20389;-63
2022/03/13 10:48:52;;;;;;;11.20;9.63;;;13.40;1.00;;;;;;5073315;28;20881;-68
2022/03/13 10:51:31;;;;;;;13.87;9.63;;;13.50;1.00;;;;;;5074968;28;20539;-70
2022/03/13 10:53:56;;;;;;;12.57;9.32;;;13.60;1.00;;;;;;5073692;28;20768;-65
2022/03/13 10:56:22;;;;;;;13.80;9.70;;;13.50;1.00;;;;;;5074176;28;20256;-63
2022/03/13 10:58:48;;;;;;;12.40;9.70;;;13.70;1.00;;;;;;5074073;28;20239;-64
2022/03/13 11:01:18;;;;;;;11.20;9.93;;;13.90;1.00;;;;;;5093557;28;20272;-69
2022/03/13 11:04:02;;;;;;;10.83;8.63;;;13.90;1.00;;;;;;5094425;28;20405;-63
2022/03/13 11:06:27;;;;;;;11.80;9.03;;;14.00;1.00;;;;;;5073920;28;20375;-63
2022/03/13 11:08:55;;;;;;;13.20;10.37;;;14.10;1.00;;;;;;5057962;28;20393;-65
2022/03/13 11:11:27;;;;;;;10.50;9.17;;;14.20;1.00;;;;;;5056067;28;20222;-63
2022/03/13 11:13:59;;;;;;;11.10;9.40;;;14.40;1.00;;;;;;5089989;28;21189;-63
2022/03/13 11:16:27;;;;;;;11.80;8.93;;;14.20;1.00;;;;;;5073959;28;20393;-71
2022/03/13 11:18:55;;;;;;;17.00;10.30;;;14.10;1.00;;;;;;5074070;28;20781;-70
2022/03/13 11:21:22;;;;;;;14.27;9.67;;;13.70;1.00;;;;;;5094195;28;20445;-64
2022/03/13 11:23:49;;;;;;;14.43;10.27;;;13.30;1.00;;;;;;5090057;28;20466;-64
2022/03/13 11:26:16;;;;;;;12.43;9.43;;;12.70;1.00;;;;;;5094074;28;20500;-69
2022/03/13 11:28:47;;;;;;;10.77;9.67;;;12.30;1.00;;;;;;5089344;28;20390;-70
2022/03/13 11:31:36;;;;;;;11.73;9.13;;;12.10;1.00;;;;;;5073278;28;20424;-63
2022/03/13 11:34:18;;;;;;;14.00;8.50;;;12.00;1.00;;;;;;5078538;28;20378;-63
2022/03/13 11:36:47;;;;;;;10.70;8.57;;;11.90;1.00;;;;;;5093976;28;20379;-70
2022/03/13 11:39:26;;;;;;;13.70;10.93;;;11.90;1.00;;;;;;5086192;28;20408;-70
2022/03/13 11:41:51;;;;;;;9.90;8.47;;;12.00;1.00;;;;;;5073430;28;20387;-70
2022/03/13 11:44:23;;;;;;;10.70;8.27;;;12.00;1.00;;;;;;5077609;28;20437;-63
2022/03/13 11:46:53;;;;;;;12.53;9.60;;;12.10;1.00;;;;;;5073523;28;20170;-63
2022/03/13 11:49:31;;;;;;;17.13;10.13;;;12.10;1.00;;;;;;5077712;28;21016;-71
2022/03/13 11:52:17;;;;;;;11.50;10.00;;;12.00;1.00;;;;;;5089886;28;20484;-64
2022/03/13 11:54:52;;;;;;;11.40;8.67;;;12.10;1.00;;;;;;5072568;28;20815;-69
2022/03/13 11:57:20;;;;;;;10.27;9.10;;;12.30;1.00;;;;;;5078383;28;20415;-70
2022/03/13 11:59:48;;;;;;;9.00;7.87;;;12.60;1.00;;;;;;5092627;28;20374;-64
2022/03/13 12:02:40;;;;;;;14.47;8.17;;;12.90;1.00;;;;;;5080263;28;20461;-64
2022/03/13 12:05:25;;;;;;;11.00;8.63;;;13.30;1.00;;;;;;5093258;28;20414;-70
2022/03/13 12:07:55;;;;;;;13.30;9.53;;;13.70;1.00;;;;;;5084362;28;20455;-70
2022/03/13 12:10:41;;;;;;;11.77;9.40;;;14.20;1.00;;;;;;5072070;28;20460;-64
2022/03/13 12:13:15;;;;;;;8.83;7.93;;;14.50;1.00;;;;;;5082379;28;20385;-69
2022/03/13 12:15:42;;;;;;;11.53;8.60;;;14.60;1.00;;;;;;5080127;28;20412;-70
2022/03/13 12:18:21;;;;;;;11.87;8.50;;;15.10;1.00;;;;;;5082736;28;20411;-70
2022/03/13 12:20:48;;;;;;;11.33;9.23;;;15.70;1.00;;;;;;5092389;28;20402;-70
2022/03/13 12:23:33;;;;;;;12.27;8.77;;;16.20;1.00;;;;;;5089026;28;20415;-64
2022/03/13 12:26:27;;;;;;;11.93;8.27;;;16.70;1.00;;;;;;5093224;28;20429;-63
2022/03/13 12:28:57;;;;;;;9.33;8.30;;;17.40;1.00;;;;;;5073070;28;20419;-71
2022/03/13 12:31:25;;;;;;;9.53;7.87;;;18.00;1.00;;;;;;5091207;28;20445;-71
2022/03/13 12:33:53;;;;;;;12.37;7.83;;;18.00;1.00;;;;;;5075188;28;20504;-72
2022/03/13 12:36:23;;;;;;;10.77;8.73;;;18.40;1.00;;;;;;5072769;28;20401;-71
2022/03/13 12:38:52;;;;;;;8.50;7.60;;;19.20;1.00;;;;;;5088830;28;20418;-69
2022/03/13 12:41:25;;;;;;;10.07;7.40;;;19.60;1.00;;;;;;5092931;28;20947;-64
2022/03/13 12:43:52;;;;;;;9.77;7.20;;;19.90;1.00;;;;;;5094422;28;20419;-64
2022/03/13 12:46:24;;;;;;;8.40;7.30;;;19.90;1.00;;;;;;5083167;28;20415;-72
2022/03/13 12:48:58;;;;;;;8.97;8.07;;;20.10;1.00;;;;;;5076830;28;20703;-70
2022/03/13 12:51:46;;;;;;;7.97;7.17;;;20.30;1.00;;;;;;5089923;28;20435;-70
2022/03/13 12:54:16;;;;;;;8.67;6.97;;;19.90;1.00;;;;;;5097158;28;20399;-67
2022/03/13 12:56:47;;;;;;;8.73;7.60;;;20.10;1.00;;;;;;5081131;28;20424;-72